createdAt,value
2022-07-31T00:01:01.778Z,54.90
2022-07-31T00:03:31.607Z,55.76
2022-07-31T00:06:01.385Z,55.23
2022-07-31T00:08:30.973Z,54.76
2022-07-31T00:11:00.881Z,54.83
2022-07-31T00:13:57.568Z,55.20
2022-07-31T00:16:19.258Z,56.24
2022-07-31T00:18:48.539Z,56.11
2022-07-31T00:21:18.191Z,56.86
2022-07-31T00:23:47.632Z,56.67
2022-07-31T00:26:16.750Z,56.50
2022-07-31T00:28:47.378Z,57.25
2022-07-31T00:31:17.996Z,56.50
2022-07-31T00:33:47.063Z,57.04
2022-07-31T00:36:16.457Z,56.69
2022-07-31T00:38:45.558Z,55.96
2022-07-31T00:41:19.443Z,55.97
2022-07-31T00:43:53.210Z,55.86
2022-07-31T00:46:23.161Z,55.49
2022-07-31T00:48:53.404Z,55.36
2022-07-31T00:51:22.473Z,55.25
2022-07-31T00:53:51.537Z,55.24
2022-07-31T00:56:20.818Z,55.21
2022-07-31T00:58:49.926Z,55.94
2022-07-31T01:01:20.054Z,57.28
2022-07-31T01:03:50.052Z,58.02
2022-07-31T01:06:21.482Z,58.30
2022-07-31T01:09:56.005Z,58.51
2022-07-31T01:12:36.112Z,58.19
2022-07-31T01:15:09.320Z,57.73
2022-07-31T01:17:40.337Z,58.50
2022-07-31T01:20:11.583Z,57.77
2022-07-31T01:23:13.902Z,57.67
2022-07-31T01:25:59.076Z,57.69
2022-07-31T01:28:53.362Z,58.76
2022-07-31T01:31:27.987Z,59.81
2022-07-31T01:34:04.021Z,60.47
2022-07-31T01:36:36.781Z,60.21
2022-07-31T01:39:06.039Z,60.27
2022-07-31T01:41:41.708Z,60.56
2022-07-31T01:44:14.331Z,60.27
2022-07-31T01:46:45.245Z,60.51
2022-07-31T01:49:16.133Z,60.79
2022-07-31T01:51:48.123Z,60.50
2022-07-31T01:54:23.180Z,61.44
2022-07-31T01:56:58.934Z,61.55
2022-07-31T01:59:32.547Z,61.19
2022-07-31T02:02:04.066Z,61.11
2022-07-31T02:04:36.321Z,61.59
2022-07-31T02:07:07.690Z,61.48
2022-07-31T02:09:38.176Z,61.77
2022-07-31T02:12:33.465Z,62.75
2022-07-31T02:15:06.290Z,63.40
2022-07-31T02:17:36.706Z,63.60
2022-07-31T02:20:09.893Z,63.47
2022-07-31T02:22:39.554Z,63.55
2022-07-31T02:25:09.953Z,63.87
2022-07-31T02:27:57.569Z,63.63
2022-07-31T02:30:39.426Z,64.41
2022-07-31T02:33:11.470Z,64.13
2022-07-31T02:35:45.206Z,64.54
2022-07-31T02:38:22.861Z,64.53
2022-07-31T02:40:55.384Z,65.04
2022-07-31T02:43:25.495Z,64.21
2022-07-31T02:45:56.096Z,64.03
2022-07-31T02:48:26.221Z,63.98
2022-07-31T02:50:56.715Z,64.14
2022-07-31T02:53:26.630Z,63.66
2022-07-31T02:55:56.600Z,64.18
2022-07-31T02:58:26.732Z,64.51
2022-07-31T03:01:03.431Z,64.61
2022-07-31T03:03:33.999Z,65.45
2022-07-31T03:06:03.606Z,65.20
2022-07-31T03:08:33.199Z,65.95
2022-07-31T03:11:02.883Z,65.75
2022-07-31T03:13:35.212Z,66.25
2022-07-31T03:16:06.936Z,66.12
2022-07-31T03:18:36.870Z,66.03
2022-07-31T03:21:06.791Z,65.98
2022-07-31T03:23:36.546Z,66.58
2022-07-31T03:26:06.888Z,66.39
2022-07-31T03:28:36.990Z,66.38
2022-07-31T03:31:07.424Z,66.86
2022-07-31T03:33:36.572Z,67.38
2022-07-31T03:36:09.190Z,67.32
2022-07-31T03:38:42.644Z,67.95
2022-07-31T03:41:13.179Z,67.39
2022-07-31T03:43:48.079Z,67.72
2022-07-31T03:46:20.382Z,68.01
2022-07-31T03:48:52.016Z,67.73
2022-07-31T03:51:22.883Z,67.61
2022-07-31T03:53:52.326Z,68.06
2022-07-31T03:56:23.112Z,68.69
2022-07-31T03:58:52.925Z,68.05
2022-07-31T04:01:23.304Z,67.64
2022-07-31T04:03:59.706Z,67.19
2022-07-31T04:06:29.093Z,67.50
2022-07-31T04:09:01.196Z,68.05
2022-07-31T04:11:45.474Z,67.75
2022-07-31T04:14:14.809Z,67.14
2022-07-31T04:16:44.184Z,67.95
2022-07-31T04:19:13.382Z,68.04
2022-07-31T04:21:42.783Z,68.36
2022-07-31T04:24:16.437Z,67.80
2022-07-31T04:26:48.164Z,67.97
2022-07-31T04:29:17.922Z,67.69
2022-07-31T04:31:47.323Z,67.48
2022-07-31T04:34:16.478Z,67.96
2022-07-31T04:36:45.512Z,67.80
2022-07-31T04:39:14.792Z,67.52
2022-07-31T04:41:44.219Z,67.64
2022-07-31T04:44:13.801Z,67.80
2022-07-31T04:46:43.935Z,67.35
2022-07-31T04:49:15.145Z,67.43
2022-07-31T04:51:47.953Z,67.92
2022-07-31T04:54:17.650Z,68.02
2022-07-31T04:56:48.188Z,67.90
2022-07-31T04:59:21.708Z,68.02
2022-07-31T05:01:54.329Z,68.21
2022-07-31T05:04:24.119Z,68.29
2022-07-31T05:06:53.863Z,68.84
2022-07-31T05:09:25.488Z,68.24
2022-07-31T05:11:54.765Z,68.16
2022-07-31T05:14:23.821Z,68.51
2022-07-31T05:16:52.936Z,68.87
2022-07-31T05:19:22.248Z,68.55
2022-07-31T05:21:53.704Z,69.25
2022-07-31T05:24:34.228Z,69.54
2022-07-31T05:27:04.698Z,69.33
2022-07-31T05:29:34.993Z,69.47
2022-07-31T05:32:05.058Z,69.32
2022-07-31T05:34:34.332Z,69.27
2022-07-31T05:37:03.959Z,69.39
2022-07-31T05:39:33.600Z,68.87
2022-07-31T05:42:03.230Z,68.79
2022-07-31T05:44:32.975Z,68.57
2022-07-31T05:47:02.566Z,68.66
2022-07-31T05:49:31.891Z,68.47
2022-07-31T05:52:02.300Z,68.93
2022-07-31T05:54:32.471Z,68.73
2022-07-31T05:57:01.847Z,68.61
2022-07-31T05:59:32.495Z,68.42
2022-07-31T06:02:02.585Z,68.08
2022-07-31T06:04:32.209Z,67.82
2022-07-31T06:07:01.703Z,67.59
2022-07-31T06:09:32.621Z,67.42
2022-07-31T06:12:02.154Z,67.29
2022-07-31T06:14:31.977Z,67.10
2022-07-31T06:17:05.687Z,67.01
2022-07-31T06:19:36.831Z,66.96
2022-07-31T06:22:06.656Z,67.17
2022-07-31T06:24:37.098Z,67.09
2022-07-31T06:27:08.702Z,66.74
2022-07-31T06:29:48.233Z,66.79
2022-07-31T06:32:17.541Z,66.85
2022-07-31T06:34:47.057Z,66.72
2022-07-31T06:37:17.006Z,66.58
2022-07-31T06:39:55.467Z,66.41
2022-07-31T06:42:26.650Z,66.23
2022-07-31T06:44:56.983Z,65.99
2022-07-31T06:47:38.538Z,65.91
2022-07-31T06:50:10.707Z,65.95
2022-07-31T06:52:41.341Z,65.88
2022-07-31T06:55:11.297Z,65.75
2022-07-31T06:57:40.589Z,65.73
2022-07-31T07:00:19.608Z,65.66
2022-07-31T07:02:49.715Z,65.43
2022-07-31T07:05:21.117Z,65.59
2022-07-31T07:07:50.448Z,65.65
2022-07-31T07:10:19.798Z,65.59
2022-07-31T07:12:49.346Z,65.63
2022-07-31T07:15:18.689Z,65.73
2022-07-31T07:17:48.088Z,65.77
2022-07-31T07:20:17.511Z,65.62
2022-07-31T07:22:46.810Z,65.50
2022-07-31T07:25:16.160Z,65.52
2022-07-31T07:27:45.363Z,65.40
2022-07-31T07:30:14.889Z,65.38
2022-07-31T07:32:44.136Z,65.56
2022-07-31T07:35:13.868Z,65.47
2022-07-31T07:37:43.311Z,65.40
2022-07-31T07:40:13.124Z,65.34
2022-07-31T07:42:42.383Z,65.34
2022-07-31T07:45:13.981Z,65.24
2022-07-31T07:48:06.163Z,64.93
2022-07-31T07:50:33.298Z,64.69
2022-07-31T07:53:02.726Z,64.56
2022-07-31T07:55:37.709Z,64.35
2022-07-31T07:58:11.754Z,64.09
2022-07-31T08:00:41.616Z,63.53
2022-07-31T08:03:50.442Z,63.13
2022-07-31T08:06:00.590Z,63.17
2022-07-31T08:08:30.072Z,63.06
2022-07-31T08:11:01.821Z,63.11
2022-07-31T08:13:32.879Z,62.99
2022-07-31T08:16:02.137Z,62.41
2022-07-31T08:18:31.691Z,61.40
2022-07-31T08:21:01.385Z,61.50
2022-07-31T08:23:30.592Z,61.32
2022-07-31T08:25:59.824Z,61.52
2022-07-31T08:28:29.475Z,60.35
2022-07-31T08:31:00.104Z,60.24
2022-07-31T08:33:29.758Z,60.03
2022-07-31T08:35:59.412Z,60.02
2022-07-31T08:38:29.239Z,60.24
2022-07-31T08:40:58.555Z,60.10
2022-07-31T08:44:01.964Z,60.18
2022-07-31T08:46:23.616Z,59.29
2022-07-31T08:48:57.575Z,59.31
2022-07-31T08:51:27.863Z,59.55
2022-07-31T08:53:59.585Z,59.30
2022-07-31T08:56:29.893Z,59.41
2022-07-31T08:58:59.305Z,58.57
2022-07-31T09:01:29.810Z,57.56
2022-07-31T09:04:00.311Z,57.96
2022-07-31T09:06:29.822Z,58.13
2022-07-31T09:08:59.334Z,58.18
2022-07-31T09:11:28.772Z,57.47
2022-07-31T09:14:02.599Z,57.50
2022-07-31T09:16:44.379Z,57.74
2022-07-31T09:19:51.334Z,57.42
2022-07-31T09:22:06.180Z,56.16
2022-07-31T09:24:39.915Z,56.25
2022-07-31T09:27:10.297Z,56.21
2022-07-31T09:29:41.089Z,55.03
2022-07-31T09:32:12.997Z,53.97
2022-07-31T09:34:44.472Z,53.94
2022-07-31T09:37:16.874Z,53.64
2022-07-31T09:39:52.209Z,52.42
2022-07-31T09:42:24.634Z,52.56
2022-07-31T09:44:54.396Z,52.67
2022-07-31T09:47:28.542Z,52.69
2022-07-31T09:49:59.927Z,51.81
2022-07-31T09:52:32.085Z,51.84
2022-07-31T09:55:14.288Z,50.91
2022-07-31T09:57:55.122Z,50.95
2022-07-31T10:00:25.620Z,51.11
2022-07-31T10:02:57.261Z,50.79
2022-07-31T10:05:28.001Z,51.31
2022-07-31T10:07:59.844Z,51.08
2022-07-31T10:10:30.117Z,49.89
2022-07-31T10:13:06.431Z,50.13
2022-07-31T10:15:37.605Z,50.64
2022-07-31T10:18:08.923Z,50.63
2022-07-31T10:20:42.123Z,50.35
2022-07-31T10:23:40.177Z,50.26
2022-07-31T10:26:10.386Z,50.78
2022-07-31T10:28:40.143Z,50.63
2022-07-31T10:31:11.854Z,50.82
2022-07-31T10:33:44.962Z,51.04
2022-07-31T10:36:19.983Z,50.84
2022-07-31T10:39:14.692Z,50.50
2022-07-31T10:41:51.943Z,50.37
2022-07-31T10:44:35.401Z,49.47
2022-07-31T10:47:15.515Z,50.07
2022-07-31T10:49:47.779Z,49.77
2022-07-31T10:52:28.447Z,49.48
2022-07-31T10:55:00.209Z,49.65
2022-07-31T10:57:33.480Z,49.36
2022-07-31T11:00:12.216Z,49.12
2022-07-31T11:02:46.968Z,49.55
2022-07-31T11:05:21.103Z,48.58
2022-07-31T11:08:02.425Z,49.20
2022-07-31T11:10:34.735Z,48.68
2022-07-31T11:13:07.215Z,48.29
2022-07-31T11:15:36.930Z,48.72
2022-07-31T11:18:20.938Z,48.61
2022-07-31T11:21:09.436Z,48.64
2022-07-31T11:23:57.617Z,48.55
2022-07-31T11:26:41.229Z,48.32
2022-07-31T11:29:59.266Z,47.96
2022-07-31T11:32:11.938Z,48.03
2022-07-31T11:34:47.727Z,47.34
2022-07-31T11:37:22.780Z,48.10
2022-07-31T11:39:53.613Z,48.32
2022-07-31T11:42:27.715Z,48.37
2022-07-31T11:45:10.991Z,47.89
2022-07-31T11:48:10.114Z,47.65
2022-07-31T11:50:41.483Z,47.60
2022-07-31T11:53:11.552Z,47.68
2022-07-31T11:55:49.694Z,47.54
2022-07-31T11:58:20.472Z,47.17
2022-07-31T12:00:54.997Z,46.96
2022-07-31T12:03:31.066Z,47.14
2022-07-31T12:06:01.319Z,45.64
2022-07-31T12:08:39.866Z,44.70
2022-07-31T12:11:14.818Z,44.47
2022-07-31T12:13:50.433Z,44.73
2022-07-31T12:16:20.147Z,44.96
2022-07-31T12:18:51.354Z,44.94
2022-07-31T12:21:29.392Z,45.45
2022-07-31T12:23:59.934Z,45.72
2022-07-31T12:26:31.303Z,45.10
2022-07-31T12:29:03.050Z,45.46
2022-07-31T12:31:48.608Z,45.74
2022-07-31T12:34:32.180Z,46.34
2022-07-31T12:37:04.393Z,46.62
2022-07-31T12:39:53.871Z,46.59
2022-07-31T12:42:30.586Z,46.76
2022-07-31T12:45:19.353Z,46.77
2022-07-31T12:47:55.551Z,46.78
2022-07-31T12:50:28.953Z,46.76
2022-07-31T12:53:01.382Z,47.02
2022-07-31T12:55:32.897Z,46.95
2022-07-31T12:58:16.570Z,46.34
2022-07-31T13:00:48.581Z,45.97
2022-07-31T13:03:19.115Z,45.31
2022-07-31T13:05:52.230Z,45.17
2022-07-31T13:08:22.020Z,43.47
2022-07-31T13:10:51.293Z,42.23
2022-07-31T13:13:23.026Z,42.19
2022-07-31T13:15:53.506Z,41.97
2022-07-31T13:18:22.695Z,41.66
2022-07-31T13:20:52.463Z,40.26
2022-07-31T13:23:22.476Z,40.27
2022-07-31T13:25:51.804Z,39.83
2022-07-31T13:28:22.022Z,40.41
2022-07-31T13:30:55.081Z,38.82
2022-07-31T13:33:28.018Z,38.36
2022-07-31T13:36:01.747Z,38.33
2022-07-31T13:38:32.198Z,39.16
2022-07-31T13:41:25.061Z,38.11
2022-07-31T13:43:59.882Z,37.11
2022-07-31T13:46:31.334Z,35.29
2022-07-31T13:49:02.050Z,35.38
2022-07-31T13:51:58.197Z,35.57
2022-07-31T13:54:28.602Z,34.64
2022-07-31T13:56:58.056Z,34.55
2022-07-31T13:59:28.769Z,34.96
2022-07-31T14:02:03.880Z,35.21
2022-07-31T14:04:38.821Z,35.40
2022-07-31T14:07:09.423Z,35.29
2022-07-31T14:09:39.195Z,35.05
2022-07-31T14:12:21.197Z,35.05
2022-07-31T14:14:53.552Z,34.80
2022-07-31T14:17:26.615Z,35.34
2022-07-31T14:19:55.973Z,35.25
2022-07-31T14:22:26.712Z,35.30
2022-07-31T14:24:57.284Z,35.16
2022-07-31T14:27:31.447Z,34.99
2022-07-31T14:30:01.757Z,35.21
2022-07-31T14:32:32.277Z,35.58
2022-07-31T14:35:07.810Z,35.63
2022-07-31T14:37:38.500Z,35.55
2022-07-31T14:40:12.875Z,35.46
2022-07-31T14:42:42.661Z,35.15
2022-07-31T14:45:12.913Z,37.20
2022-07-31T14:47:46.090Z,38.39
2022-07-31T14:50:20.078Z,38.51
2022-07-31T14:52:49.868Z,39.21
2022-07-31T14:55:19.282Z,39.49
2022-07-31T14:57:48.580Z,39.79
2022-07-31T15:00:18.131Z,40.08
2022-07-31T15:02:49.974Z,40.29
2022-07-31T15:06:39.734Z,40.94
2022-07-31T15:08:08.663Z,40.95
2022-07-31T15:10:39.346Z,40.85
2022-07-31T15:13:09.158Z,40.87
2022-07-31T15:15:41.438Z,41.20
2022-07-31T15:18:10.614Z,41.31
2022-07-31T15:20:39.976Z,41.29
2022-07-31T15:23:09.284Z,41.26
2022-07-31T15:25:38.535Z,41.37
2022-07-31T15:28:07.742Z,41.43
2022-07-31T15:30:37.170Z,41.79
2022-07-31T15:33:06.404Z,42.10
2022-07-31T15:35:36.341Z,42.43
2022-07-31T15:38:06.363Z,42.71
2022-07-31T15:40:35.829Z,42.67
2022-07-31T15:43:05.436Z,42.87
2022-07-31T15:45:34.664Z,42.85
2022-07-31T15:48:08.298Z,43.01
2022-07-31T15:50:39.990Z,42.70
2022-07-31T15:53:09.223Z,42.65
2022-07-31T15:55:39.789Z,42.45
2022-07-31T15:58:10.213Z,42.49
2022-07-31T16:00:39.606Z,42.64
2022-07-31T16:03:08.910Z,42.88
2022-07-31T16:05:45.255Z,42.88
2022-07-31T16:08:29.945Z,42.76
2022-07-31T16:11:04.114Z,42.41
2022-07-31T16:13:35.921Z,42.21
2022-07-31T16:16:06.386Z,42.14
2022-07-31T16:18:35.976Z,41.60
2022-07-31T16:21:05.719Z,41.63
2022-07-31T16:23:36.050Z,41.43
2022-07-31T16:26:05.284Z,41.48
2022-07-31T16:28:34.414Z,41.47
2022-07-31T16:31:03.918Z,41.34
2022-07-31T16:33:33.276Z,41.43
2022-07-31T16:36:02.500Z,41.20
2022-07-31T16:38:32.458Z,41.23
2022-07-31T16:41:01.736Z,41.14
2022-07-31T16:43:47.673Z,41.29
2022-07-31T16:46:20.551Z,41.12
2022-07-31T16:48:53.253Z,40.85
2022-07-31T16:51:24.916Z,41.09
2022-07-31T16:54:12.938Z,41.12
2022-07-31T16:56:45.422Z,40.80
2022-07-31T16:59:57.520Z,40.87
2022-07-31T17:02:27.866Z,40.68
2022-07-31T17:04:57.320Z,40.45
2022-07-31T17:07:26.697Z,40.36
2022-07-31T17:10:22.542Z,40.42
2022-07-31T17:13:32.730Z,40.28
2022-07-31T17:20:46.170Z,40.61
2022-07-31T17:23:19.265Z,40.27
2022-07-31T17:26:21.592Z,40.43
2022-07-31T17:29:19.414Z,40.28
2022-07-31T17:31:49.644Z,40.40
2022-07-31T17:34:24.593Z,40.46
2022-07-31T17:36:55.894Z,40.52
2022-07-31T17:39:30.667Z,40.66
2022-07-31T17:42:02.070Z,40.84
2022-07-31T17:44:34.299Z,40.99
2022-07-31T17:47:10.096Z,41.06
2022-07-31T17:49:42.005Z,41.05
2022-07-31T17:52:11.820Z,41.16
2022-07-31T17:54:41.550Z,40.84
2022-07-31T17:57:12.923Z,41.15
2022-07-31T17:59:58.418Z,40.99
2022-07-31T18:02:29.126Z,41.28
2022-07-31T18:05:00.050Z,41.35
2022-07-31T18:07:40.530Z,41.25
2022-07-31T18:10:32.543Z,41.67
2022-07-31T18:13:09.881Z,41.79
2022-07-31T18:15:41.980Z,41.78
2022-07-31T18:18:16.643Z,42.06
2022-07-31T18:20:52.391Z,42.04
2022-07-31T18:23:32.022Z,41.93
2022-07-31T18:26:06.849Z,42.04
2022-07-31T18:28:36.970Z,42.06
2022-07-31T18:31:31.544Z,41.91
2022-07-31T18:33:56.273Z,42.05
2022-07-31T18:36:26.651Z,41.95
2022-07-31T18:38:57.311Z,41.90
2022-07-31T18:41:27.168Z,42.06
2022-07-31T18:43:57.734Z,42.06
2022-07-31T18:46:27.352Z,42.05
2022-07-31T18:48:57.154Z,42.21
2022-07-31T18:51:28.314Z,42.30
2022-07-31T18:53:58.408Z,42.41
2022-07-31T19:23:43.253Z,43.38
2022-07-31T19:26:17.751Z,43.66
2022-07-31T19:28:50.333Z,43.87
2022-07-31T19:31:50.302Z,43.73
2022-07-31T19:34:31.598Z,43.97
2022-07-31T19:37:32.525Z,44.19
2022-07-31T19:40:21.054Z,44.37
2022-07-31T19:43:00.148Z,44.56
2022-07-31T19:46:10.009Z,44.62
2022-07-31T19:48:36.054Z,44.98
2022-07-31T19:51:11.276Z,45.02
2022-07-31T19:53:44.656Z,45.24
2022-07-31T19:56:20.654Z,45.43
2022-07-31T19:58:56.304Z,45.39
2022-07-31T20:01:28.915Z,45.73
2022-07-31T20:04:02.212Z,45.72
2022-07-31T20:06:40.168Z,45.89
2022-07-31T20:09:16.969Z,46.01
2022-07-31T20:11:51.642Z,46.14
2022-07-31T20:14:25.541Z,46.20
2022-07-31T20:17:00.393Z,46.33
2022-07-31T20:20:14.695Z,46.38
2022-07-31T20:22:48.833Z,46.56
2022-07-31T20:25:21.591Z,46.58
2022-07-31T20:27:54.182Z,46.75
2022-07-31T20:30:26.822Z,46.80
2022-07-31T20:32:59.236Z,46.96
2022-07-31T20:35:49.451Z,47.14
2022-07-31T20:38:24.263Z,47.31
2022-07-31T20:40:57.533Z,47.64
2022-07-31T20:43:31.320Z,47.86
2022-07-31T20:46:03.914Z,47.86
2022-07-31T20:48:39.203Z,48.14
2022-07-31T20:51:20.383Z,48.06
2022-07-31T20:53:56.445Z,48.09
2022-07-31T20:56:30.943Z,48.18
2022-07-31T20:59:03.925Z,48.47
2022-07-31T21:01:39.127Z,48.30
2022-07-31T21:04:12.145Z,48.47
2022-07-31T21:06:44.828Z,48.53
2022-07-31T21:09:17.498Z,48.56
2022-07-31T21:11:50.895Z,48.72
2022-07-31T21:14:23.854Z,48.74
2022-07-31T21:16:56.372Z,48.76
2022-07-31T21:19:28.962Z,48.89
2022-07-31T21:22:01.481Z,48.94
2022-07-31T21:24:37.705Z,49.07
2022-07-31T21:27:18.272Z,49.17
2022-07-31T21:29:56.711Z,49.18
2022-07-31T21:32:30.898Z,49.25
2022-07-31T21:35:08.785Z,49.30
2022-07-31T21:37:49.272Z,49.54
2022-07-31T21:40:30.748Z,50.19
2022-07-31T21:43:04.327Z,50.98
2022-07-31T21:45:50.491Z,52.12
2022-07-31T21:48:30.081Z,52.83
2022-07-31T21:51:14.326Z,54.19
2022-07-31T21:53:47.592Z,55.78
2022-07-31T21:56:20.137Z,58.95
2022-07-31T21:58:52.894Z,60.27
2022-07-31T22:01:26.012Z,59.85
2022-07-31T22:03:59.334Z,58.16
2022-07-31T22:07:01.279Z,59.35
2022-07-31T22:09:33.958Z,60.47
2022-07-31T22:12:07.447Z,61.53
2022-07-31T22:14:40.474Z,62.80
2022-07-31T22:17:17.168Z,60.01
2022-07-31T22:19:50.703Z,59.52
2022-07-31T22:22:24.659Z,59.17
2022-07-31T22:24:58.095Z,59.13
2022-07-31T22:27:55.887Z,58.63
2022-07-31T22:30:30.715Z,58.43
2022-07-31T22:33:05.250Z,58.07
2022-07-31T22:35:40.990Z,57.92
2022-07-31T22:38:16.259Z,57.93
2022-07-31T22:40:49.084Z,57.93
2022-07-31T22:44:09.285Z,57.85
2022-07-31T22:46:16.403Z,57.88
2022-07-31T22:48:49.580Z,57.69
2022-07-31T22:51:23.541Z,57.52
2022-07-31T22:53:56.071Z,57.50
2022-07-31T22:56:28.962Z,57.40
2022-07-31T22:59:01.558Z,57.43
2022-07-31T23:01:34.293Z,57.32
2022-07-31T23:04:07.553Z,57.23
2022-07-31T23:06:40.139Z,57.25
2022-07-31T23:09:12.810Z,57.15
2022-07-31T23:11:47.944Z,57.02
2022-07-31T23:14:20.600Z,57.15
2022-07-31T23:16:53.160Z,57.05
2022-07-31T23:19:25.761Z,57.09
2022-07-31T23:21:59.181Z,57.15
2022-07-31T23:24:32.791Z,57.19
2022-07-31T23:27:08.997Z,57.02
2022-07-31T23:29:41.882Z,57.07
2022-07-31T23:32:18.273Z,57.09
2022-07-31T23:34:55.607Z,56.96
2022-07-31T23:37:39.797Z,56.95
2022-07-31T23:40:16.166Z,56.90
2022-07-31T23:42:49.175Z,56.78
2022-07-31T23:45:24.948Z,56.71
2022-07-31T23:47:58.919Z,56.68
2022-07-31T23:50:32.232Z,56.67
2022-07-31T23:53:05.351Z,56.68
2022-07-31T23:55:41.721Z,56.61
2022-07-31T23:58:15.933Z,56.63
